Time;durP1;ratioP1;P1;durP2;ratioP2;P2;SDS_P1;SDS_P2;PMS_P1;PMS_P2;Temp;Humidity;BMP_temperature;BMP_pressure;BME280_temperature;BME280_humidity;BME280_pressure;Samples;Min_cycle;Max_cycle;Signal;HPM_P1;HPM_P2
2023/11/12 00:01:53;;;;;;;1.00;1.00;;;;;;;;;;6311322;22;20191;-83
2023/11/12 00:04:22;;;;;;;1.02;0.93;;;;;;;;;;6311602;22;20198;-83
2023/11/12 00:06:50;;;;;;;1.55;1.45;;;;;;;;;;6311146;22;20187;-83
2023/11/12 00:09:18;;;;;;;1.35;1.25;;;;;;;;;;6311663;22;20221;-82
2023/11/12 00:11:46;;;;;;;1.70;1.60;;;;;;;;;;6310963;22;20238;-82
2023/11/12 00:14:14;;;;;;;1.52;1.42;;;;;;;;;;6309844;22;20168;-82
2023/11/12 00:16:43;;;;;;;2.05;1.88;;;;;;;;;;6311449;22;20171;-83
2023/11/12 00:19:10;;;;;;;1.60;1.50;;;;;;;;;;6310396;22;20167;-82
2023/11/12 00:21:39;;;;;;;1.67;1.58;;;;;;;;;;6311815;22;20690;-82
2023/11/12 00:24:09;;;;;;;1.83;1.48;;;;;;;;;;6311211;22;20231;-82
2023/11/12 00:26:37;;;;;;;2.10;2.00;;;;;;;;;;6311508;22;20193;-83
2023/11/12 00:29:05;;;;;;;1.70;1.60;;;;;;;;;;6311573;22;20191;-83
2023/11/12 00:31:33;;;;;;;1.70;1.60;;;;;;;;;;6312082;22;20168;-83
2023/11/12 00:34:01;;;;;;;1.70;1.60;;;;;;;;;;6311513;22;20203;-83
2023/11/12 00:36:30;;;;;;;1.48;1.38;;;;;;;;;;6311339;22;20199;-83
2023/11/12 00:38:59;;;;;;;1.55;1.45;;;;;;;;;;6311545;22;20208;-83
2023/11/12 00:41:26;;;;;;;1.50;1.40;;;;;;;;;;6310796;22;20255;-83
2023/11/12 00:43:56;;;;;;;1.65;1.55;;;;;;;;;;6311120;22;20218;-83
2023/11/12 00:46:24;;;;;;;1.90;1.80;;;;;;;;;;6311534;22;20171;-83
2023/11/12 00:48:52;;;;;;;1.60;1.50;;;;;;;;;;6312033;22;20199;-83
2023/11/12 00:51:19;;;;;;;2.80;1.98;;;;;;;;;;6310790;22;20191;-82
2023/11/12 00:53:47;;;;;;;1.73;1.63;;;;;;;;;;6310881;22;20700;-82
2023/11/12 00:56:16;;;;;;;1.90;1.80;;;;;;;;;;6310767;22;20207;-83
2023/11/12 00:58:45;;;;;;;1.58;1.48;;;;;;;;;;6310690;22;20167;-82
2023/11/12 01:01:14;;;;;;;1.80;1.70;;;;;;;;;;6310694;22;20577;-82
2023/11/12 01:03:41;;;;;;;2.22;2.13;;;;;;;;;;6311731;22;20172;-83
2023/11/12 01:06:09;;;;;;;1.85;1.75;;;;;;;;;;6311867;22;20210;-81
2023/11/12 01:08:36;;;;;;;1.90;1.80;;;;;;;;;;6312255;22;20183;-82
2023/11/12 01:11:05;;;;;;;2.83;2.63;;;;;;;;;;6311774;22;20223;-83
2023/11/12 01:13:34;;;;;;;1.98;1.88;;;;;;;;;;6312276;22;20221;-83
2023/11/12 01:16:02;;;;;;;2.05;1.95;;;;;;;;;;6313221;22;20164;-83
2023/11/12 01:18:31;;;;;;;2.20;2.05;;;;;;;;;;6312466;22;20176;-83
2023/11/12 01:20:59;;;;;;;2.20;1.90;;;;;;;;;;6312802;22;20227;-81
2023/11/12 01:23:26;;;;;;;1.90;1.80;;;;;;;;;;6311923;22;20563;-82
2023/11/12 01:25:54;;;;;;;2.30;2.10;;;;;;;;;;6311477;22;20659;-82
2023/11/12 01:28:23;;;;;;;2.13;1.98;;;;;;;;;;6313569;22;20254;-83
2023/11/12 01:30:52;;;;;;;2.75;2.55;;;;;;;;;;6312314;22;20297;-83
2023/11/12 01:33:19;;;;;;;2.53;2.33;;;;;;;;;;6312334;22;20664;-83
2023/11/12 01:35:47;;;;;;;2.20;2.10;;;;;;;;;;6312396;22;20207;-83
2023/11/12 01:38:15;;;;;;;2.28;2.17;;;;;;;;;;6311897;22;20207;-82
2023/11/12 01:40:43;;;;;;;2.22;2.03;;;;;;;;;;6307526;22;20596;-83
2023/11/12 01:43:10;;;;;;;1.83;1.73;;;;;;;;;;6308202;22;20196;-82
2023/11/12 01:45:38;;;;;;;2.42;2.22;;;;;;;;;;6307958;22;20251;-82
2023/11/12 01:48:09;;;;;;;2.20;2.10;;;;;;;;;;6309088;22;20695;-82
2023/11/12 01:50:38;;;;;;;2.30;2.10;;;;;;;;;;6308881;22;20192;-82
2023/11/12 01:53:06;;;;;;;3.13;2.83;;;;;;;;;;6309162;22;20171;-82
2023/11/12 01:55:34;;;;;;;2.63;2.40;;;;;;;;;;6309534;22;20172;-82
2023/11/12 01:58:04;;;;;;;2.20;2.10;;;;;;;;;;6309284;22;20183;-82
2023/11/12 02:00:33;;;;;;;2.60;2.40;;;;;;;;;;6308974;22;20253;-82
2023/11/12 02:03:03;;;;;;;2.58;2.25;;;;;;;;;;6308684;22;20188;-82
2023/11/12 02:05:32;;;;;;;4.93;2.25;;;;;;;;;;6308424;22;20160;-82
2023/11/12 02:08:03;;;;;;;1.85;1.75;;;;;;;;;;6307920;22;20697;-81
2023/11/12 02:10:35;;;;;;;2.25;2.15;;;;;;;;;;6309227;22;20206;-82
2023/11/12 02:13:04;;;;;;;2.33;2.22;;;;;;;;;;6308982;22;20175;-82
2023/11/12 02:15:33;;;;;;;2.42;2.22;;;;;;;;;;6309556;22;20164;-81
2023/11/12 02:18:00;;;;;;;3.28;2.92;;;;;;;;;;6309422;22;20168;-82
2023/11/12 02:20:28;;;;;;;3.03;2.47;;;;;;;;;;6309749;22;20211;-82
2023/11/12 02:22:57;;;;;;;4.15;2.55;;;;;;;;;;6308681;22;20881;-82
2023/11/12 02:25:26;;;;;;;4.82;2.20;;;;;;;;;;6309113;22;20207;-82
2023/11/12 02:27:54;;;;;;;2.10;2.00;;;;;;;;;;6309326;22;20192;-82
2023/11/12 02:30:21;;;;;;;2.03;1.92;;;;;;;;;;6309042;22;20239;-82
2023/11/12 02:32:49;;;;;;;6.72;2.75;;;;;;;;;;6309450;22;20204;-81
2023/11/12 02:35:17;;;;;;;2.28;2.15;;;;;;;;;;6309079;22;20168;-83
2023/11/12 02:37:45;;;;;;;2.83;2.63;;;;;;;;;;6309265;22;20521;-83
2023/11/12 02:40:14;;;;;;;2.67;2.47;;;;;;;;;;6309547;22;20587;-81
2023/11/12 02:42:43;;;;;;;2.40;2.20;;;;;;;;;;6308954;22;20202;-82
2023/11/12 02:45:11;;;;;;;2.17;2.08;;;;;;;;;;6309846;22;20254;-82
2023/11/12 02:47:39;;;;;;;2.42;2.33;;;;;;;;;;6309584;22;20168;-82
2023/11/12 02:50:25;;;;;;;3.15;2.85;;;;;;;;;;6309486;22;20279;-82
2023/11/12 02:52:53;;;;;;;2.30;2.10;;;;;;;;;;6309525;22;20623;-81
2023/11/12 02:55:21;;;;;;;2.80;2.35;;;;;;;;;;6309184;22;20214;-83
2023/11/12 02:57:50;;;;;;;2.95;2.72;;;;;;;;;;6309074;22;20168;-82
2023/11/12 03:00:18;;;;;;;2.13;2.00;;;;;;;;;;6309443;22;20192;-82
2023/11/12 03:02:46;;;;;;;2.40;2.20;;;;;;;;;;6309792;22;20188;-81
2023/11/12 03:05:14;;;;;;;3.13;2.92;;;;;;;;;;6309087;22;20176;-82
2023/11/12 03:07:42;;;;;;;2.47;2.22;;;;;;;;;;6308856;22;20191;-81
2023/11/12 03:10:10;;;;;;;4.15;2.72;;;;;;;;;;6309575;22;20262;-82
2023/11/12 03:12:38;;;;;;;2.58;2.20;;;;;;;;;;6309510;22;20176;-83
2023/11/12 03:15:09;;;;;;;2.28;2.08;;;;;;;;;;6309349;22;20246;-83
2023/11/12 03:17:37;;;;;;;3.00;2.40;;;;;;;;;;6309745;22;20206;-82
2023/11/12 03:20:08;;;;;;;2.10;2.00;;;;;;;;;;6310235;22;20270;-82
2023/11/12 03:22:36;;;;;;;1.80;1.70;;;;;;;;;;6309221;22;20534;-81
2023/11/12 03:25:04;;;;;;;2.10;1.90;;;;;;;;;;6309759;22;20207;-83
2023/11/12 03:27:33;;;;;;;1.95;1.85;;;;;;;;;;6309540;22;20682;-83
2023/11/12 03:30:00;;;;;;;2.17;2.08;;;;;;;;;;6310225;22;20194;-83
2023/11/12 03:32:29;;;;;;;2.33;2.22;;;;;;;;;;6309902;22;20659;-81
2023/11/12 03:34:57;;;;;;;3.25;2.00;;;;;;;;;;6309804;22;20815;-82
2023/11/12 03:37:25;;;;;;;2.17;2.00;;;;;;;;;;6310022;22;20175;-83
2023/11/12 03:39:52;;;;;;;1.70;1.60;;;;;;;;;;6309695;22;20215;-83
2023/11/12 03:42:19;;;;;;;2.50;1.90;;;;;;;;;;6310067;22;20167;-82
2023/11/12 03:44:49;;;;;;;2.03;1.75;;;;;;;;;;6309211;22;20209;-82
2023/11/12 03:47:17;;;;;;;2.05;1.95;;;;;;;;;;6310014;22;20229;-81
2023/11/12 03:49:46;;;;;;;2.22;2.03;;;;;;;;;;6309307;22;20191;-84
2023/11/12 03:52:14;;;;;;;2.65;1.73;;;;;;;;;;6309050;22;20223;-83
2023/11/12 03:54:41;;;;;;;2.08;1.98;;;;;;;;;;6309823;22;20600;-81
2023/11/12 03:57:09;;;;;;;2.10;2.00;;;;;;;;;;6309747;22;20199;-82
2023/11/12 03:59:37;;;;;;;2.28;1.92;;;;;;;;;;6309276;22;20188;-81
2023/11/12 04:02:05;;;;;;;1.80;1.70;;;;;;;;;;6310358;22;20662;-83
2023/11/12 04:04:33;;;;;;;1.77;1.67;;;;;;;;;;6309712;22;20659;-83
2023/11/12 04:07:02;;;;;;;1.67;1.58;;;;;;;;;;6309840;22;20218;-83
2023/11/12 04:09:30;;;;;;;1.70;1.60;;;;;;;;;;6310397;22;20241;-82
2023/11/12 04:11:58;;;;;;;2.20;1.90;;;;;;;;;;6310834;22;20176;-82
2023/11/12 04:14:25;;;;;;;1.75;1.65;;;;;;;;;;6310197;22;20615;-82
2023/11/12 04:16:53;;;;;;;2.20;2.00;;;;;;;;;;6309846;22;20206;-83
2023/11/12 04:19:20;;;;;;;2.00;1.90;;;;;;;;;;6310086;22;20200;-83
2023/11/12 04:21:48;;;;;;;1.98;1.88;;;;;;;;;;6310942;22;20176;-81
2023/11/12 04:24:17;;;;;;;2.08;1.75;;;;;;;;;;6310220;22;20192;-81
2023/11/12 04:26:45;;;;;;;2.80;1.75;;;;;;;;;;6310309;22;20223;-81
2023/11/12 04:29:13;;;;;;;2.35;1.83;;;;;;;;;;6308991;22;20211;-83
2023/11/12 04:31:41;;;;;;;1.90;1.80;;;;;;;;;;6308449;22;20195;-81
2023/11/12 04:34:08;;;;;;;1.75;1.65;;;;;;;;;;6307507;22;20183;-83
2023/11/12 04:36:36;;;;;;;1.83;1.73;;;;;;;;;;6310696;22;20658;-82
2023/11/12 04:39:04;;;;;;;2.17;2.08;;;;;;;;;;6312317;22;20251;-83
2023/11/12 04:41:33;;;;;;;1.83;1.73;;;;;;;;;;6312859;22;20621;-83
2023/11/12 04:44:01;;;;;;;1.90;1.80;;;;;;;;;;6311886;22;20212;-83
2023/11/12 04:46:30;;;;;;;2.03;1.92;;;;;;;;;;6313189;22;20660;-82
2023/11/12 04:48:58;;;;;;;2.60;2.40;;;;;;;;;;6312183;22;20168;-82
2023/11/12 04:51:26;;;;;;;2.45;2.22;;;;;;;;;;6312845;22;20181;-83
2023/11/12 04:53:54;;;;;;;2.35;2.22;;;;;;;;;;6312456;22;20172;-83
2023/11/12 04:56:21;;;;;;;2.28;2.13;;;;;;;;;;6312748;22;20176;-82
2023/11/12 04:58:50;;;;;;;2.78;2.05;;;;;;;;;;6312102;22;20199;-83
2023/11/12 05:01:18;;;;;;;2.00;1.90;;;;;;;;;;6312322;22;20683;-82
2023/11/12 05:03:46;;;;;;;2.03;1.88;;;;;;;;;;6311217;22;20234;-81
2023/11/12 05:06:14;;;;;;;1.95;1.80;;;;;;;;;;6312004;22;20197;-81
2023/11/12 05:08:42;;;;;;;1.98;1.80;;;;;;;;;;6311546;22;20183;-82
2023/11/12 05:11:10;;;;;;;2.30;2.08;;;;;;;;;;6311780;22;20226;-81
2023/11/12 05:13:38;;;;;;;1.77;1.67;;;;;;;;;;6310994;22;20195;-82
2023/11/12 05:16:07;;;;;;;1.70;1.60;;;;;;;;;;6311303;22;20504;-83
2023/11/12 05:18:35;;;;;;;1.60;1.50;;;;;;;;;;6311754;22;20199;-83
2023/11/12 05:21:05;;;;;;;1.58;1.48;;;;;;;;;;6311516;22;20224;-83
2023/11/12 05:23:33;;;;;;;1.58;1.48;;;;;;;;;;6311361;22;20172;-83
2023/11/12 05:26:00;;;;;;;1.70;1.60;;;;;;;;;;6311217;22;20199;-83
2023/11/12 05:28:28;;;;;;;2.00;1.90;;;;;;;;;;6311398;22;20178;-83
2023/11/12 05:30:56;;;;;;;2.10;2.00;;;;;;;;;;6311323;22;20188;-82
2023/11/12 05:33:25;;;;;;;2.10;1.90;;;;;;;;;;6311464;22;20178;-80
2023/11/12 05:35:53;;;;;;;2.80;2.60;;;;;;;;;;6311154;22;20243;-81
2023/11/12 05:38:20;;;;;;;2.00;1.90;;;;;;;;;;6310890;22;20172;-83
2023/11/12 05:40:48;;;;;;;2.40;2.25;;;;;;;;;;6311436;22;20566;-82
2023/11/12 05:43:15;;;;;;;3.30;2.35;;;;;;;;;;6311994;22;20200;-82
2023/11/12 05:45:43;;;;;;;2.40;2.20;;;;;;;;;;6311435;22;20200;-83
2023/11/12 05:48:11;;;;;;;2.22;2.08;;;;;;;;;;6310174;22;20176;-82
2023/11/12 05:50:39;;;;;;;2.22;2.03;;;;;;;;;;6310920;22;20227;-82
2023/11/12 05:53:07;;;;;;;2.50;2.30;;;;;;;;;;6310831;22;20225;-82
2023/11/12 05:55:35;;;;;;;2.85;2.33;;;;;;;;;;6311017;22;20192;-83
2023/11/12 05:58:03;;;;;;;2.03;1.83;;;;;;;;;;6311281;22;20248;-83
2023/11/12 06:00:30;;;;;;;2.70;2.50;;;;;;;;;;6310441;22;20248;-83
2023/11/12 06:02:58;;;;;;;2.55;2.35;;;;;;;;;;6312598;22;20241;-82
2023/11/12 06:05:25;;;;;;;2.75;2.13;;;;;;;;;;6313860;22;20448;-82
2023/11/12 06:07:54;;;;;;;3.88;2.60;;;;;;;;;;6311027;22;20255;-83
2023/11/12 06:10:23;;;;;;;2.38;2.17;;;;;;;;;;6311083;22;20203;-81
2023/11/12 06:12:50;;;;;;;2.58;2.28;;;;;;;;;;6311869;22;20175;-81
2023/11/12 06:15:25;;;;;;;2.83;2.63;;;;;;;;;;6311293;22;20191;-82
2023/11/12 06:17:53;;;;;;;2.83;2.50;;;;;;;;;;6311131;22;20156;-83
2023/11/12 06:20:20;;;;;;;2.60;2.38;;;;;;;;;;6310744;22;20220;-83
2023/11/12 06:22:48;;;;;;;2.72;2.53;;;;;;;;;;6311750;22;20176;-83
2023/11/12 06:25:17;;;;;;;2.67;2.47;;;;;;;;;;6311182;22;20223;-83
2023/11/12 06:27:44;;;;;;;2.97;2.78;;;;;;;;;;6311077;22;20180;-82
2023/11/12 06:30:13;;;;;;;3.38;3.17;;;;;;;;;;6310936;22;20203;-81
2023/11/12 06:32:40;;;;;;;2.92;2.65;;;;;;;;;;6312049;22;20252;-81
2023/11/12 06:35:09;;;;;;;2.90;2.70;;;;;;;;;;6310336;22;20679;-83
2023/11/12 06:37:37;;;;;;;2.65;2.45;;;;;;;;;;6310844;22;20175;-83
2023/11/12 06:40:06;;;;;;;3.08;2.88;;;;;;;;;;6311172;22;20590;-82
2023/11/12 06:42:35;;;;;;;2.92;2.72;;;;;;;;;;6310098;22;20246;-82
2023/11/12 06:45:04;;;;;;;2.72;2.53;;;;;;;;;;6310036;22;20640;-82
2023/11/12 06:47:31;;;;;;;3.25;2.85;;;;;;;;;;6310164;22;20251;-82
2023/11/12 06:49:59;;;;;;;4.15;3.67;;;;;;;;;;6311108;22;20248;-83
2023/11/12 06:52:26;;;;;;;3.58;3.28;;;;;;;;;;6311391;22;20572;-81
2023/11/12 06:54:54;;;;;;;4.50;4.03;;;;;;;;;;6310551;22;20206;-83
2023/11/12 06:57:21;;;;;;;3.55;3.25;;;;;;;;;;6309874;22;20558;-82
2023/11/12 06:59:50;;;;;;;3.25;3.05;;;;;;;;;;6309800;22;20219;-83
2023/11/12 07:02:18;;;;;;;3.10;2.80;;;;;;;;;;6311733;22;20214;-82
2023/11/12 07:04:47;;;;;;;3.30;3.10;;;;;;;;;;6310340;22;20187;-83
2023/11/12 07:07:14;;;;;;;2.42;2.25;;;;;;;;;;6310175;22;20704;-82
2023/11/12 07:09:44;;;;;;;3.42;3.13;;;;;;;;;;6309774;22;20215;-83
2023/11/12 07:12:13;;;;;;;2.85;2.65;;;;;;;;;;6310262;22;20676;-83
2023/11/12 07:14:41;;;;;;;3.10;2.83;;;;;;;;;;6310108;22;20175;-83
2023/11/12 07:17:10;;;;;;;2.60;2.40;;;;;;;;;;6310447;22;20203;-82
2023/11/12 07:19:38;;;;;;;2.58;2.38;;;;;;;;;;6309975;22;20567;-82
2023/11/12 07:22:05;;;;;;;3.13;2.83;;;;;;;;;;6311045;22;20616;-82
2023/11/12 07:24:36;;;;;;;2.70;2.50;;;;;;;;;;6311407;22;20167;-82
2023/11/12 07:27:04;;;;;;;3.30;3.00;;;;;;;;;;6310751;22;20175;-82
2023/11/12 07:29:32;;;;;;;2.50;2.30;;;;;;;;;;6311246;22;20294;-81
2023/11/12 07:31:59;;;;;;;2.33;2.10;;;;;;;;;;6311983;22;20171;-81
2023/11/12 07:34:28;;;;;;;2.00;1.90;;;;;;;;;;6311250;22;20697;-81
2023/11/12 07:36:56;;;;;;;4.28;3.05;;;;;;;;;;6311972;22;20176;-81
2023/11/12 07:39:23;;;;;;;2.40;2.30;;;;;;;;;;6312192;22;20513;-82
2023/11/12 07:41:51;;;;;;;3.05;2.83;;;;;;;;;;6311880;22;20175;-83
2023/11/12 07:44:19;;;;;;;2.58;2.38;;;;;;;;;;6311237;22;20773;-82
2023/11/12 07:46:46;;;;;;;2.78;2.58;;;;;;;;;;6311486;22;20222;-82
2023/11/12 07:49:14;;;;;;;2.63;2.42;;;;;;;;;;6312618;22;20210;-81
2023/11/12 07:51:43;;;;;;;2.30;2.08;;;;;;;;;;6311634;22;20248;-82
2023/11/12 07:54:11;;;;;;;2.63;2.42;;;;;;;;;;6310759;22;20573;-83
2023/11/12 07:56:38;;;;;;;2.42;2.22;;;;;;;;;;6311396;22;20251;-82
2023/11/12 07:59:06;;;;;;;2.50;2.25;;;;;;;;;;6311393;22;20187;-82
2023/11/12 08:01:33;;;;;;;2.15;2.05;;;;;;;;;;6312664;22;20179;-81
2023/11/12 08:04:01;;;;;;;2.47;2.28;;;;;;;;;;6310595;22;20168;-83
2023/11/12 08:06:29;;;;;;;2.20;2.00;;;;;;;;;;6310759;22;20247;-82
2023/11/12 08:09:00;;;;;;;2.70;2.50;;;;;;;;;;6310839;22;20184;-82
2023/11/12 08:11:27;;;;;;;2.97;2.67;;;;;;;;;;6311481;22;20214;-81
2023/11/12 08:13:55;;;;;;;2.00;1.90;;;;;;;;;;6310998;22;20667;-83
2023/11/12 08:16:22;;;;;;;2.10;2.00;;;;;;;;;;6310952;22;20172;-82
2023/11/12 08:18:50;;;;;;;2.03;1.92;;;;;;;;;;6310946;22;20203;-82
2023/11/12 08:21:18;;;;;;;2.33;2.13;;;;;;;;;;6310875;22;20211;-82
2023/11/12 08:23:47;;;;;;;2.13;1.90;;;;;;;;;;6310862;22;20549;-82
2023/11/12 08:26:16;;;;;;;1.73;1.63;;;;;;;;;;6310977;22;20234;-82
2023/11/12 08:28:43;;;;;;;2.03;1.92;;;;;;;;;;6310866;22;20179;-83
2023/11/12 08:31:11;;;;;;;1.63;1.52;;;;;;;;;;6311121;22;20262;-83
2023/11/12 08:33:38;;;;;;;1.70;1.60;;;;;;;;;;6311009;22;20175;-82
2023/11/12 08:36:07;;;;;;;1.80;1.70;;;;;;;;;;6310777;22;20274;-82
2023/11/12 08:38:36;;;;;;;1.40;1.30;;;;;;;;;;6312338;22;20209;-83
2023/11/12 08:41:05;;;;;;;1.35;1.27;;;;;;;;;;6311678;22;20200;-82
2023/11/12 08:43:34;;;;;;;1.10;1.10;;;;;;;;;;6312527;22;20613;-82
2023/11/12 08:46:02;;;;;;;1.55;1.45;;;;;;;;;;6312308;22;20191;-81
2023/11/12 08:48:32;;;;;;;1.40;1.30;;;;;;;;;;6311971;22;20205;-82
2023/11/12 08:51:01;;;;;;;1.25;1.15;;;;;;;;;;6313572;22;20195;-81
2023/11/12 08:53:28;;;;;;;1.02;1.02;;;;;;;;;;6312655;22;20171;-81
2023/11/12 08:55:56;;;;;;;1.27;1.17;;;;;;;;;;6312657;22;20175;-82
2023/11/12 08:58:24;;;;;;;1.60;1.50;;;;;;;;;;6313375;22;20243;-82
2023/11/12 09:00:54;;;;;;;1.52;1.42;;;;;;;;;;6312377;22;20194;-82
2023/11/12 09:03:22;;;;;;;2.55;1.88;;;;;;;;;;6309994;22;20178;-82
2023/11/12 09:05:49;;;;;;;2.08;1.83;;;;;;;;;;6310368;22;20192;-81
2023/11/12 09:08:17;;;;;;;2.28;2.08;;;;;;;;;;6310983;22;20195;-83
2023/11/12 09:10:45;;;;;;;2.00;1.90;;;;;;;;;;6311056;22;20219;-81
2023/11/12 09:13:13;;;;;;;2.90;2.47;;;;;;;;;;6311875;22;20645;-81
2023/11/12 09:15:42;;;;;;;2.60;2.40;;;;;;;;;;6310808;22;20176;-82
2023/11/12 09:18:12;;;;;;;5.47;2.90;;;;;;;;;;6312692;22;20176;-81
2023/11/12 09:20:39;;;;;;;3.53;3.10;;;;;;;;;;6310469;22;20238;-81
2023/11/12 09:23:07;;;;;;;3.25;2.90;;;;;;;;;;6312768;22;20176;-82
2023/11/12 09:25:34;;;;;;;3.45;3.15;;;;;;;;;;6314685;22;20237;-82
2023/11/12 09:28:06;;;;;;;3.03;2.75;;;;;;;;;;6313483;22;20192;-81
2023/11/12 09:30:34;;;;;;;3.03;2.78;;;;;;;;;;6314373;22;20242;-81
2023/11/12 09:33:04;;;;;;;3.08;2.88;;;;;;;;;;6314658;22;20163;-82
2023/11/12 09:35:33;;;;;;;2.80;2.60;;;;;;;;;;6312777;22;20163;-83
2023/11/12 09:38:00;;;;;;;6.03;5.53;;;;;;;;;;6313040;22;20192;-82
2023/11/12 09:40:31;;;;;;;4.65;4.07;;;;;;;;;;6313181;22;20192;-82
2023/11/12 09:42:59;;;;;;;4.38;4.07;;;;;;;;;;6313170;22;20168;-82
2023/11/12 09:45:27;;;;;;;4.32;3.55;;;;;;;;;;6312992;22;20621;-83
2023/11/12 09:48:05;;;;;;;3.50;2.92;;;;;;;;;;6313143;22;20237;-82
2023/11/12 09:50:35;;;;;;;2.90;2.70;;;;;;;;;;6313876;22;20196;-82
2023/11/12 09:53:03;;;;;;;3.58;2.92;;;;;;;;;;6314076;22;20168;-83
2023/11/12 09:55:31;;;;;;;2.85;2.55;;;;;;;;;;6313661;22;20685;-82
2023/11/12 09:58:01;;;;;;;2.15;2.05;;;;;;;;;;6314521;22;20254;-82
2023/11/12 10:00:29;;;;;;;2.60;2.40;;;;;;;;;;6313724;22;20199;-82
2023/11/12 10:02:57;;;;;;;2.88;2.67;;;;;;;;;;6314046;22;20647;-82
2023/11/12 10:05:25;;;;;;;2.63;2.42;;;;;;;;;;6313049;22;20172;-82
2023/11/12 10:07:54;;;;;;;2.08;1.83;;;;;;;;;;6313218;22;20230;-82
2023/11/12 10:10:23;;;;;;;6.93;3.60;;;;;;;;;;6312979;22;20207;-82
2023/11/12 10:12:52;;;;;;;2.60;2.40;;;;;;;;;;6314641;22;20532;-82
2023/11/12 10:15:24;;;;;;;3.20;2.90;;;;;;;;;;6313583;22;20229;-82
2023/11/12 10:17:53;;;;;;;2.67;2.47;;;;;;;;;;6313582;22;20163;-81
2023/11/12 10:20:22;;;;;;;3.70;3.03;;;;;;;;;;6313664;22;20696;-82
2023/11/12 10:22:50;;;;;;;2.72;2.53;;;;;;;;;;6314222;22;20203;-80
2023/11/12 10:25:39;;;;;;;2.75;2.47;;;;;;;;;;6313511;22;20176;-82
2023/11/12 10:28:08;;;;;;;3.30;2.40;;;;;;;;;;6314041;22;20180;-82
2023/11/12 10:30:37;;;;;;;3.88;2.80;;;;;;;;;;6313888;22;20269;-81
2023/11/12 10:33:19;;;;;;;3.65;3.10;;;;;;;;;;6312442;22;20168;-82
2023/11/12 10:35:48;;;;;;;4.47;3.72;;;;;;;;;;6313034;22;20176;-83
2023/11/12 10:38:17;;;;;;;4.25;3.83;;;;;;;;;;6314405;22;20171;-82
2023/11/12 10:41:03;;;;;;;3.40;3.10;;;;;;;;;;6314071;22;20665;-81
2023/11/12 10:43:31;;;;;;;3.47;3.17;;;;;;;;;;6312882;22;20601;-82
2023/11/12 10:46:00;;;;;;;3.85;3.47;;;;;;;;;;6313965;22;20502;-83
2023/11/12 10:48:33;;;;;;;4.25;3.85;;;;;;;;;;6312718;22;20196;-82
2023/11/12 10:51:03;;;;;;;3.65;3.20;;;;;;;;;;6311736;22;20210;-82
2023/11/12 10:53:31;;;;;;;4.93;3.50;;;;;;;;;;6313843;22;20199;-82
2023/11/12 10:56:02;;;;;;;4.22;3.42;;;;;;;;;;6312358;22;20516;-81
2023/11/12 10:58:30;;;;;;;4.55;3.53;;;;;;;;;;6312835;22;20588;-83
2023/11/12 11:01:01;;;;;;;3.25;2.90;;;;;;;;;;6312795;22;20234;-84
2023/11/12 11:03:30;;;;;;;3.45;2.60;;;;;;;;;;6311948;22;20175;-83
2023/11/12 11:06:01;;;;;;;5.03;3.20;;;;;;;;;;6311610;22;20698;-83
2023/11/12 11:08:31;;;;;;;3.20;2.90;;;;;;;;;;6311087;22;20671;-83
2023/11/12 11:11:02;;;;;;;5.35;3.80;;;;;;;;;;6307906;22;20202;-83
2023/11/12 11:13:30;;;;;;;4.00;3.63;;;;;;;;;;6306730;22;20239;-83
2023/11/12 11:15:58;;;;;;;3.10;2.90;;;;;;;;;;6306519;22;20222;-83
2023/11/12 11:18:52;;;;;;;3.17;2.88;;;;;;;;;;6306939;22;20178;-83
2023/11/12 11:21:20;;;;;;;2.83;2.53;;;;;;;;;;6306807;22;20191;-83
2023/11/12 11:23:54;;;;;;;3.35;3.05;;;;;;;;;;6306126;22;20266;-83
2023/11/12 11:26:38;;;;;;;2.88;2.53;;;;;;;;;;6307370;22;20155;-83
2023/11/12 11:29:17;;;;;;;3.53;3.15;;;;;;;;;;6307052;22;20195;-82
2023/11/12 11:32:18;;;;;;;3.90;3.42;;;;;;;;;;6307773;22;20156;-82
2023/11/12 11:34:48;;;;;;;3.80;3.45;;;;;;;;;;6306702;22;20222;-83
2023/11/12 11:37:16;;;;;;;3.30;3.00;;;;;;;;;;6307286;22;20179;-82
2023/11/12 11:39:44;;;;;;;2.85;2.65;;;;;;;;;;6307454;22;20282;-83
2023/11/12 11:42:18;;;;;;;2.90;2.70;;;;;;;;;;6307312;22;20179;-83
2023/11/12 11:44:46;;;;;;;3.25;2.80;;;;;;;;;;6307325;22;20234;-82
2023/11/12 11:47:15;;;;;;;4.22;3.40;;;;;;;;;;6307725;22;20172;-83
2023/11/12 11:49:45;;;;;;;2.90;2.70;;;;;;;;;;6307118;22;20194;-81
2023/11/12 11:52:24;;;;;;;2.90;2.70;;;;;;;;;;6307193;22;20173;-82
2023/11/12 11:54:57;;;;;;;3.35;3.05;;;;;;;;;;6307376;22;20167;-82
2023/11/12 11:57:27;;;;;;;3.35;3.05;;;;;;;;;;6307681;22;20160;-81
2023/11/12 11:59:55;;;;;;;3.20;2.92;;;;;;;;;;6307625;22;20830;-83
2023/11/12 12:02:23;;;;;;;3.13;2.83;;;;;;;;;;6308096;22;20250;-82
2023/11/12 12:04:53;;;;;;;3.05;2.65;;;;;;;;;;6307686;22;20171;-82
2023/11/12 12:07:25;;;;;;;3.58;3.28;;;;;;;;;;6307945;22;20214;-82
2023/11/12 12:09:55;;;;;;;3.95;2.75;;;;;;;;;;6307951;22;20195;-82
2023/11/12 12:12:25;;;;;;;3.28;2.97;;;;;;;;;;6308467;22;20254;-82
2023/11/12 12:14:54;;;;;;;2.72;2.53;;;;;;;;;;6308036;22;20195;-82
2023/11/12 12:17:22;;;;;;;2.90;2.53;;;;;;;;;;6308009;22;20167;-83
2023/11/12 12:19:53;;;;;;;2.45;2.25;;;;;;;;;;6308310;22;20275;-83
2023/11/12 12:22:25;;;;;;;2.58;2.38;;;;;;;;;;6308252;22;20192;-83
2023/11/12 12:24:55;;;;;;;6.15;3.45;;;;;;;;;;6308564;22;20209;-84
2023/11/12 12:27:23;;;;;;;3.70;3.28;;;;;;;;;;6308800;22;20207;-83
2023/11/12 12:29:53;;;;;;;3.38;2.90;;;;;;;;;;6308173;22;20199;-84
2023/11/12 12:32:22;;;;;;;3.70;3.40;;;;;;;;;;6308298;22;20186;-83
2023/11/12 12:34:56;;;;;;;4.07;3.22;;;;;;;;;;6308023;22;20241;-83
2023/11/12 12:37:25;;;;;;;3.33;2.97;;;;;;;;;;6308437;22;20669;-82
2023/11/12 12:39:59;;;;;;;3.42;3.13;;;;;;;;;;6308504;22;20188;-82
2023/11/12 12:42:27;;;;;;;4.07;3.70;;;;;;;;;;6310012;22;20269;-83
2023/11/12 12:44:57;;;;;;;2.63;2.42;;;;;;;;;;6308142;22;20511;-83
2023/11/12 12:47:34;;;;;;;3.65;3.13;;;;;;;;;;6308953;22;20170;-83
2023/11/12 12:50:14;;;;;;;3.40;3.10;;;;;;;;;;6309048;22;20195;-82
2023/11/12 12:52:44;;;;;;;2.85;2.65;;;;;;;;;;6307640;22;20171;-82
2023/11/12 12:55:15;;;;;;;2.58;2.38;;;;;;;;;;6308145;22;20182;-82
2023/11/12 12:57:43;;;;;;;2.17;1.98;;;;;;;;;;6308769;22;20160;-82
2023/11/12 13:00:14;;;;;;;2.40;2.20;;;;;;;;;;6311258;22;20202;-82
2023/11/12 13:02:42;;;;;;;4.25;2.88;;;;;;;;;;6310738;22;20194;-82
2023/11/12 13:05:14;;;;;;;3.33;3.03;;;;;;;;;;6310308;22;20251;-83
2023/11/12 13:07:44;;;;;;;3.20;2.90;;;;;;;;;;6311156;22;20241;-83
2023/11/12 13:10:15;;;;;;;2.60;2.40;;;;;;;;;;6310473;22;20226;-82
2023/11/12 13:12:43;;;;;;;2.42;2.22;;;;;;;;;;6310865;22;20483;-82
2023/11/12 13:15:13;;;;;;;2.17;2.05;;;;;;;;;;6310279;22;20565;-84
2023/11/12 13:17:41;;;;;;;2.75;2.55;;;;;;;;;;6309883;22;20199;-82
2023/11/12 13:20:13;;;;;;;3.67;3.13;;;;;;;;;;6310142;22;20675;-83
2023/11/12 13:22:42;;;;;;;4.25;2.47;;;;;;;;;;6310679;22;20160;-83
2023/11/12 13:25:12;;;;;;;3.33;3.03;;;;;;;;;;6310402;22;20221;-84
2023/11/12 13:27:44;;;;;;;2.97;2.30;;;;;;;;;;6310587;22;20578;-83
2023/11/12 13:30:14;;;;;;;2.72;2.53;;;;;;;;;;6310542;22;20234;-85
2023/11/12 13:32:42;;;;;;;2.60;2.40;;;;;;;;;;6310866;22;20190;-82
2023/11/12 13:35:11;;;;;;;3.25;2.33;;;;;;;;;;6311038;22;20210;-82
2023/11/12 13:37:40;;;;;;;2.88;2.65;;;;;;;;;;6312078;22;20171;-81
2023/11/12 13:40:13;;;;;;;3.28;2.92;;;;;;;;;;6311597;22;20706;-83
2023/11/12 13:42:41;;;;;;;3.92;3.38;;;;;;;;;;6310999;22;20240;-82
2023/11/12 13:45:12;;;;;;;3.65;3.28;;;;;;;;;;6311061;22;20246;-82
2023/11/12 13:47:39;;;;;;;3.95;3.22;;;;;;;;;;6311525;22;20534;-83
2023/11/12 13:50:10;;;;;;;3.20;2.80;;;;;;;;;;6311477;22;20317;-82
2023/11/12 13:52:38;;;;;;;3.20;2.63;;;;;;;;;;6310559;22;20164;-82
2023/11/12 13:55:07;;;;;;;3.63;2.70;;;;;;;;;;6310974;22;20206;-82
2023/11/12 13:57:35;;;;;;;3.08;2.85;;;;;;;;;;6311560;22;20176;-82
2023/11/12 14:00:06;;;;;;;2.60;2.35;;;;;;;;;;6311312;22;20195;-82
2023/11/12 14:02:35;;;;;;;2.70;2.50;;;;;;;;;;6310897;22;20156;-82
2023/11/12 14:05:05;;;;;;;2.70;2.30;;;;;;;;;;6310863;22;20172;-82
2023/11/12 14:07:33;;;;;;;2.25;2.05;;;;;;;;;;6311294;22;20187;-82
2023/11/12 14:10:02;;;;;;;2.65;2.45;;;;;;;;;;6310838;22;20227;-82
2023/11/12 14:12:32;;;;;;;3.00;2.80;;;;;;;;;;6311970;22;20327;-82
2023/11/12 14:15:00;;;;;;;3.33;3.03;;;;;;;;;;6310911;22;20172;-82
2023/11/12 14:17:29;;;;;;;4.97;3.08;;;;;;;;;;6311308;22;20559;-82
2023/11/12 14:19:58;;;;;;;3.38;2.85;;;;;;;;;;6311632;22;20194;-82
2023/11/12 14:22:27;;;;;;;2.25;2.05;;;;;;;;;;6311151;22;20180;-82
2023/11/12 14:24:54;;;;;;;2.67;2.47;;;;;;;;;;6311011;22;20176;-82
2023/11/12 14:27:24;;;;;;;3.40;2.50;;;;;;;;;;6311275;22;20640;-83
2023/11/12 14:29:51;;;;;;;3.10;2.80;;;;;;;;;;6310594;22;20206;-83
2023/11/12 14:32:20;;;;;;;2.35;2.15;;;;;;;;;;6310854;22;20632;-83
2023/11/12 14:34:48;;;;;;;2.70;2.50;;;;;;;;;;6310879;22;20176;-82
2023/11/12 14:37:16;;;;;;;2.05;1.90;;;;;;;;;;6310665;22;20183;-83
2023/11/12 14:39:44;;;;;;;2.20;2.00;;;;;;;;;;6311034;22;20271;-83
2023/11/12 14:42:11;;;;;;;2.50;2.30;;;;;;;;;;6312077;22;20199;-83
2023/11/12 14:44:39;;;;;;;2.05;1.95;;;;;;;;;;6311220;22;20179;-82
2023/11/12 14:47:07;;;;;;;2.95;1.92;;;;;;;;;;6311315;22;20511;-83
2023/11/12 14:49:34;;;;;;;1.73;1.63;;;;;;;;;;6311724;22;20230;-84
2023/11/12 14:52:04;;;;;;;2.38;2.17;;;;;;;;;;6311510;22;20573;-84
2023/11/12 14:54:33;;;;;;;2.67;2.47;;;;;;;;;;6311183;22;20251;-82